sensor_id;sensor_type;location;lat;lon;timestamp;pressure;altitude;pressure_sealevel;temperature;humidity
21863;BME280;11096;51.338;12.524;2023-03-04T00:01:35;100655.22;;;1.22;nan
21863;BME280;11096;51.338;12.524;2023-03-04T00:04:00;100644.41;;;1.47;nan
21863;BME280;11096;51.338;12.524;2023-03-04T00:06:26;100647.06;;;1.44;nan
21863;BME280;11096;51.338;12.524;2023-03-04T00:08:51;100638.31;;;1.15;nan
21863;BME280;11096;51.338;12.524;2023-03-04T00:11:16;100638.38;;;1.14;nan
21863;BME280;11096;51.338;12.524;2023-03-04T00:13:42;100636.72;;;1.11;nan
21863;BME280;11096;51.338;12.524;2023-03-04T00:16:07;100645.16;;;1.15;nan
21863;BME280;11096;51.338;12.524;2023-03-04T00:18:33;100645.06;;;1.18;nan
21863;BME280;11096;51.338;12.524;2023-03-04T00:20:58;100637.50;;;1.13;nan
21863;BME280;11096;51.338;12.524;2023-03-04T00:23:23;100640.78;;;1.20;nan
21863;BME280;11096;51.338;12.524;2023-03-04T00:25:49;100641.59;;;1.20;nan
21863;BME280;11096;51.338;12.524;2023-03-04T00:28:14;100638.38;;;1.12;nan
21863;BME280;11096;51.338;12.524;2023-03-04T00:30:40;100631.25;;;1.26;nan
21863;BME280;11096;51.338;12.524;2023-03-04T00:33:05;100637.19;;;1.28;nan
21863;BME280;11096;51.338;12.524;2023-03-04T00:35:30;100637.00;;;1.36;nan
21863;BME280;11096;51.338;12.524;2023-03-04T00:37:56;100636.25;;;1.31;nan
21863;BME280;11096;51.338;12.524;2023-03-04T00:40:21;100636.94;;;1.38;nan
21863;BME280;11096;51.338;12.524;2023-03-04T00:42:47;100628.50;;;1.34;nan
21863;BME280;11096;51.338;12.524;2023-03-04T00:45:12;100631.78;;;1.39;nan
21863;BME280;11096;51.338;12.524;2023-03-04T00:47:37;100630.19;;;1.35;nan
21863;BME280;11096;51.338;12.524;2023-03-04T00:50:03;100628.84;;;1.19;nan
21863;BME280;11096;51.338;12.524;2023-03-04T00:52:29;100630.53;;;1.20;nan
21863;BME280;11096;51.338;12.524;2023-03-04T00:54:54;100629.72;;;1.18;nan
21863;BME280;11096;51.338;12.524;2023-03-04T00:57:19;100635.56;;;1.23;nan
21863;BME280;11096;51.338;12.524;2023-03-04T00:59:45;100633.69;;;1.31;nan
21863;BME280;11096;51.338;12.524;2023-03-04T01:02:11;100639.56;;;1.36;nan
21863;BME280;11096;51.338;12.524;2023-03-04T01:04:36;100633.44;;;1.42;nan
21863;BME280;11096;51.338;12.524;2023-03-04T01:07:02;100640.38;;;1.38;nan
21863;BME280;11096;51.338;12.524;2023-03-04T01:09:27;100640.38;;;1.38;nan
21863;BME280;11096;51.338;12.524;2023-03-04T01:11:53;100639.56;;;1.35;nan
21863;BME280;11096;51.338;12.524;2023-03-04T01:14:18;100635.19;;;1.40;nan
21863;BME280;11096;51.338;12.524;2023-03-04T01:16:44;100624.28;;;1.33;nan
21863;BME280;11096;51.338;12.524;2023-03-04T01:19:09;100621.00;;;1.26;nan
21863;BME280;11096;51.338;12.524;2023-03-04T01:21:35;100612.38;;;1.31;nan
21863;BME280;11096;51.338;12.524;2023-03-04T01:24:00;100608.38;;;1.19;nan
21863;BME280;11096;51.338;12.524;2023-03-04T01:26:26;100596.44;;;1.18;nan
21863;BME280;11096;51.338;12.524;2023-03-04T01:28:51;100597.69;;;1.01;nan
21863;BME280;11096;51.338;12.524;2023-03-04T01:31:17;100584.81;;;1.04;nan
21863;BME280;11096;51.338;12.524;2023-03-04T01:33:42;100589.81;;;1.09;nan
21863;BME280;11096;51.338;12.524;2023-03-04T01:36:07;100581.44;;;1.02;nan
21863;BME280;11096;51.338;12.524;2023-03-04T01:38:33;100588.13;;;1.08;nan
21863;BME280;11096;51.338;12.524;2023-03-04T01:40:58;100594.25;;;1.01;nan
21863;BME280;11096;51.338;12.524;2023-03-04T01:43:26;100580.44;;;1.08;nan
21863;BME280;11096;51.338;12.524;2023-03-04T01:45:53;100570.38;;;1.02;nan
21863;BME280;11096;51.338;12.524;2023-03-04T01:48:31;100563.31;;;1.12;nan
21863;BME280;11096;51.338;12.524;2023-03-04T01:50:58;100563.44;;;1.05;nan
21863;BME280;11096;51.338;12.524;2023-03-04T01:53:28;100561.03;;;0.99;nan
21863;BME280;11096;51.338;12.524;2023-03-04T01:55:57;100564.47;;;0.98;nan
21863;BME280;11096;51.338;12.524;2023-03-04T01:58:25;100550.69;;;1.04;nan
21863;BME280;11096;51.338;12.524;2023-03-04T02:00:52;100540.50;;;1.02;nan
21863;BME280;11096;51.338;12.524;2023-03-04T02:03:18;100543.84;;;1.04;nan
21863;BME280;11096;51.338;12.524;2023-03-04T02:05:47;100542.88;;;1.10;nan
21863;BME280;11096;51.338;12.524;2023-03-04T02:08:14;100541.13;;;1.11;nan
21863;BME280;11096;51.338;12.524;2023-03-04T02:10:41;100549.59;;;1.14;nan
21863;BME280;11096;51.338;12.524;2023-03-04T02:13:07;100534.25;;;1.14;nan
21863;BME280;11096;51.338;12.524;2023-03-04T02:15:33;100539.91;;;1.27;nan
21863;BME280;11096;51.338;12.524;2023-03-04T02:17:59;100539.88;;;1.28;nan
21863;BME280;11096;51.338;12.524;2023-03-04T02:21:02;100540.75;;;1.27;nan
21863;BME280;11096;51.338;12.524;2023-03-04T02:23:38;100535.72;;;1.23;nan
21863;BME280;11096;51.338;12.524;2023-03-04T02:26:21;100541.91;;;1.14;nan
21863;BME280;11096;51.338;12.524;2023-03-04T02:28:49;100535.25;;;1.09;nan
21863;BME280;11096;51.338;12.524;2023-03-04T02:31:29;100536.50;;;1.26;nan
21863;BME280;11096;51.338;12.524;2023-03-04T02:33:57;100527.47;;;1.12;nan
21863;BME280;11096;51.338;12.524;2023-03-04T02:36:23;100532.41;;;1.19;nan
21863;BME280;11096;51.338;12.524;2023-03-04T02:38:52;100532.38;;;1.21;nan
21863;BME280;11096;51.338;12.524;2023-03-04T02:41:22;100522.06;;;1.24;nan
21863;BME280;11096;51.338;12.524;2023-03-04T02:43:51;100529.81;;;1.21;nan
21863;BME280;11096;51.338;12.524;2023-03-04T02:46:17;100516.84;;;1.28;nan
21863;BME280;11096;51.338;12.524;2023-03-04T02:48:43;100514.38;;;1.24;nan
21863;BME280;11096;51.338;12.524;2023-03-04T02:51:08;100504.97;;;1.24;nan
21863;BME280;11096;51.338;12.524;2023-03-04T02:53:34;100507.72;;;1.17;nan
21863;BME280;11096;51.338;12.524;2023-03-04T02:55:59;100506.59;;;1.28;nan
21863;BME280;11096;51.338;12.524;2023-03-04T02:58:25;100498.72;;;1.36;nan
21863;BME280;11096;51.338;12.524;2023-03-04T03:00:50;100492.97;;;1.28;nan
21863;BME280;11096;51.338;12.524;2023-03-04T03:03:16;100495.56;;;1.25;nan
21863;BME280;11096;51.338;12.524;2023-03-04T03:05:41;100497.09;;;1.32;nan
21863;BME280;11096;51.338;12.524;2023-03-04T03:08:07;100496.28;;;1.32;nan
21863;BME280;11096;51.338;12.524;2023-03-04T03:10:32;100486.44;;;1.49;nan
21863;BME280;11096;51.338;12.524;2023-03-04T03:12:58;100489.94;;;1.45;nan
21863;BME280;11096;51.338;12.524;2023-03-04T03:15:24;100491.44;;;1.54;nan
21863;BME280;11096;51.338;12.524;2023-03-04T03:17:49;100496.47;;;1.57;nan
21863;BME280;11096;51.338;12.524;2023-03-04T03:20:16;100493.72;;;1.64;nan
21863;BME280;11096;51.338;12.524;2023-03-04T03:22:41;100490.28;;;1.65;nan
21863;BME280;11096;51.338;12.524;2023-03-04T03:25:08;100501.19;;;1.72;nan
21863;BME280;11096;51.338;12.524;2023-03-04T03:27:34;100495.22;;;1.71;nan
21863;BME280;11096;51.338;12.524;2023-03-04T03:30:00;100495.13;;;1.76;nan
21863;BME280;11096;51.338;12.524;2023-03-04T03:32:26;100488.59;;;1.64;nan
21863;BME280;11096;51.338;12.524;2023-03-04T03:34:51;100496.03;;;1.74;nan
21863;BME280;11096;51.338;12.524;2023-03-04T03:37:17;100482.31;;;1.75;nan
21863;BME280;11096;51.338;12.524;2023-03-04T03:39:42;100485.75;;;1.75;nan
21863;BME280;11096;51.338;12.524;2023-03-04T03:42:08;100485.56;;;1.81;nan
21863;BME280;11096;51.338;12.524;2023-03-04T03:44:33;100478.72;;;1.82;nan
21863;BME280;11096;51.338;12.524;2023-03-04T03:46:59;100482.06;;;1.85;nan
21863;BME280;11096;51.338;12.524;2023-03-04T03:49:24;100473.34;;;1.91;nan
21863;BME280;11096;51.338;12.524;2023-03-04T03:51:49;100483.56;;;1.92;nan
21863;BME280;11096;51.338;12.524;2023-03-04T03:54:15;100483.63;;;1.89;nan
21863;BME280;11096;51.338;12.524;2023-03-04T03:56:40;100486.00;;;1.97;nan
21863;BME280;11096;51.338;12.524;2023-03-04T03:59:06;100474.84;;;1.98;nan
21863;BME280;11096;51.338;12.524;2023-03-04T04:01:31;100478.44;;;1.92;nan
21863;BME280;11096;51.338;12.524;2023-03-04T04:03:58;100472.25;;;2.00;nan
21863;BME280;11096;51.338;12.524;2023-03-04T04:06:24;100467.16;;;1.98;nan
21863;BME280;11096;51.338;12.524;2023-03-04T04:08:49;100473.91;;;2.02;nan
21863;BME280;11096;51.338;12.524;2023-03-04T04:11:14;100467.06;;;2.01;nan
21863;BME280;11096;51.338;12.524;2023-03-04T04:13:40;100476.25;;;2.10;nan
21863;BME280;11096;51.338;12.524;2023-03-04T04:16:06;100467.66;;;2.11;nan
21863;BME280;11096;51.338;12.524;2023-03-04T04:18:31;100468.50;;;2.11;nan
21863;BME280;11096;51.338;12.524;2023-03-04T04:20:57;100466.84;;;2.09;nan
21863;BME280;11096;51.338;12.524;2023-03-04T04:23:22;100468.44;;;2.14;nan
21863;BME280;11096;51.338;12.524;2023-03-04T04:25:48;100467.75;;;2.08;nan
21863;BME280;11096;51.338;12.524;2023-03-04T04:28:13;100469.25;;;2.15;nan
21863;BME280;11096;51.338;12.524;2023-03-04T04:30:39;100465.84;;;2.14;nan
21863;BME280;11096;51.338;12.524;2023-03-04T04:33:04;100474.41;;;2.13;nan
21863;BME280;11096;51.338;12.524;2023-03-04T04:35:34;100469.34;;;2.12;nan
21863;BME280;11096;51.338;12.524;2023-03-04T04:38:00;100469.63;;;2.01;nan
21863;BME280;11096;51.338;12.524;2023-03-04T04:40:25;100460.72;;;1.85;nan
21863;BME280;11096;51.338;12.524;2023-03-04T04:42:50;100460.38;;;1.97;nan
21863;BME280;11096;51.338;12.524;2023-03-04T04:45:16;100462.25;;;1.90;nan
21863;BME280;11096;51.338;12.524;2023-03-04T04:47:42;100469.00;;;1.95;nan
21863;BME280;11096;51.338;12.524;2023-03-04T04:50:08;100454.47;;;1.93;nan
21863;BME280;11096;51.338;12.524;2023-03-04T04:52:33;100456.88;;;2.00;nan
21863;BME280;11096;51.338;12.524;2023-03-04T04:54:59;100461.50;;;1.87;nan
21863;BME280;11096;51.338;12.524;2023-03-04T04:57:24;100456.34;;;1.88;nan
21863;BME280;11096;51.338;12.524;2023-03-04T04:59:50;100454.47;;;1.93;nan
21863;BME280;11096;51.338;12.524;2023-03-04T05:02:15;100457.72;;;2.00;nan
21863;BME280;11096;51.338;12.524;2023-03-04T05:04:41;100452.47;;;2.05;nan
21863;BME280;11096;51.338;12.524;2023-03-04T05:07:06;100447.50;;;1.99;nan
21863;BME280;11096;51.338;12.524;2023-03-04T05:09:32;100448.34;;;1.99;nan
21863;BME280;11096;51.338;12.524;2023-03-04T05:11:57;100448.53;;;1.93;nan
21863;BME280;11096;51.338;12.524;2023-03-04T05:14:23;100452.53;;;2.02;nan
21863;BME280;11096;51.338;12.524;2023-03-04T05:16:48;100450.03;;;2.00;nan
21863;BME280;11096;51.338;12.524;2023-03-04T05:19:14;100449.91;;;2.05;nan
21863;BME280;11096;51.338;12.524;2023-03-04T05:21:39;100452.38;;;2.08;nan
21863;BME280;11096;51.338;12.524;2023-03-04T05:24:05;100443.06;;;2.04;nan
21863;BME280;11096;51.338;12.524;2023-03-04T05:26:31;100445.59;;;2.05;nan
21863;BME280;11096;51.338;12.524;2023-03-04T05:28:56;100448.13;;;2.07;nan
21863;BME280;11096;51.338;12.524;2023-03-04T05:31:22;100442.03;;;2.11;nan
21863;BME280;11096;51.338;12.524;2023-03-04T05:33:47;100438.59;;;2.12;nan
21863;BME280;11096;51.338;12.524;2023-03-04T05:36:13;100438.75;;;2.06;nan
21863;BME280;11096;51.338;12.524;2023-03-04T05:38:38;100431.06;;;2.06;nan
21863;BME280;11096;51.338;12.524;2023-03-04T05:41:05;100432.69;;;2.08;nan
21863;BME280;11096;51.338;12.524;2023-03-04T05:43:32;100427.78;;;2.01;nan
21863;BME280;11096;51.338;12.524;2023-03-04T05:45:59;100423.94;;;1.86;nan
21863;BME280;11096;51.338;12.524;2023-03-04T05:48:25;100422.75;;;1.98;nan
21863;BME280;11096;51.338;12.524;2023-03-04T05:50:58;100420.72;;;2.09;nan
21863;BME280;11096;51.338;12.524;2023-03-04T05:53:24;100425.06;;;2.07;nan
21863;BME280;11096;51.338;12.524;2023-03-04T05:55:50;100424.50;;;1.97;nan
21863;BME280;11096;51.338;12.524;2023-03-04T05:58:16;100415.72;;;2.04;nan
21863;BME280;11096;51.338;12.524;2023-03-04T06:00:42;100423.56;;;2.00;nan
21863;BME280;11096;51.338;12.524;2023-03-04T06:03:13;100422.69;;;1.99;nan
21863;BME280;11096;51.338;12.524;2023-03-04T06:05:39;100427.34;;;1.86;nan
21863;BME280;11096;51.338;12.524;2023-03-04T06:08:05;100431.88;;;2.08;nan
21863;BME280;11096;51.338;12.524;2023-03-04T06:10:30;100435.03;;;2.16;nan
21863;BME280;11096;51.338;12.524;2023-03-04T06:12:55;100426.47;;;2.17;nan
21863;BME280;11096;51.338;12.524;2023-03-04T06:15:21;100429.91;;;2.16;nan
21863;BME280;11096;51.338;12.524;2023-03-04T06:17:46;100434.22;;;2.14;nan
21863;BME280;11096;51.338;12.524;2023-03-04T06:20:12;100438.34;;;2.20;nan
21863;BME280;11096;51.338;12.524;2023-03-04T06:22:37;100437.31;;;2.25;nan
21863;BME280;11096;51.338;12.524;2023-03-04T06:25:03;100439.78;;;2.28;nan
21863;BME280;11096;51.338;12.524;2023-03-04T06:27:29;100438.28;;;2.21;nan
21863;BME280;11096;51.338;12.524;2023-03-04T06:29:54;100428.13;;;2.18;nan
21863;BME280;11096;51.338;12.524;2023-03-04T06:32:20;100440.63;;;2.29;nan
21863;BME280;11096;51.338;12.524;2023-03-04T06:34:46;100435.31;;;2.35;nan
21863;BME280;11096;51.338;12.524;2023-03-04T06:37:11;100441.50;;;2.29;nan
21863;BME280;11096;51.338;12.524;2023-03-04T06:39:36;100439.50;;;2.39;nan
21863;BME280;11096;51.338;12.524;2023-03-04T06:42:02;100433.66;;;2.34;nan
21863;BME280;11096;51.338;12.524;2023-03-04T06:44:28;100434.28;;;2.41;nan
21863;BME280;11096;51.338;12.524;2023-03-04T06:46:53;100435.84;;;2.46;nan
21863;BME280;11096;51.338;12.524;2023-03-04T06:49:18;100433.09;;;2.52;nan
21863;BME280;11096;51.338;12.524;2023-03-04T06:51:44;100436.63;;;2.48;nan
21863;BME280;11096;51.338;12.524;2023-03-04T06:54:09;100434.03;;;2.50;nan
21863;BME280;11096;51.338;12.524;2023-03-04T06:56:35;100430.63;;;2.49;nan
21863;BME280;11096;51.338;12.524;2023-03-04T06:59:00;100429.41;;;2.61;nan
21863;BME280;11096;51.338;12.524;2023-03-04T07:01:27;100432.75;;;2.63;nan
21863;BME280;11096;51.338;12.524;2023-03-04T07:03:54;100429.88;;;2.72;nan
21863;BME280;11096;51.338;12.524;2023-03-04T07:06:22;100433.03;;;2.80;nan
21863;BME280;11096;51.338;12.524;2023-03-04T07:08:48;100426.19;;;2.81;nan
21863;BME280;11096;51.338;12.524;2023-03-04T07:11:14;100423.97;;;2.70;nan
21863;BME280;11096;51.338;12.524;2023-03-04T07:13:40;100426.03;;;2.59;nan
21863;BME280;11096;51.338;12.524;2023-03-04T07:16:11;100430.72;;;2.73;nan
21863;BME280;11096;51.338;12.524;2023-03-04T07:18:37;100434.72;;;2.82;nan
21863;BME280;11096;51.338;12.524;2023-03-04T07:21:03;100437.47;;;3.02;nan
21863;BME280;11096;51.338;12.524;2023-03-04T07:23:29;100438.28;;;3.04;nan
21863;BME280;11096;51.338;12.524;2023-03-04T07:25:54;100427.84;;;3.09;nan
21863;BME280;11096;51.338;12.524;2023-03-04T07:28:20;100432.03;;;3.11;nan
21863;BME280;11096;51.338;12.524;2023-03-04T07:30:45;100431.41;;;3.05;nan
21863;BME280;11096;51.338;12.524;2023-03-04T07:33:12;100435.25;;;3.18;nan
21863;BME280;11096;51.338;12.524;2023-03-04T07:35:38;100439.38;;;3.22;nan
21863;BME280;11096;51.338;12.524;2023-03-04T07:38:03;100438.25;;;3.31;nan
21863;BME280;11096;51.338;12.524;2023-03-04T07:40:28;100440.59;;;3.37;nan
21863;BME280;11096;51.338;12.524;2023-03-04T07:42:55;100440.28;;;3.46;nan
21863;BME280;11096;51.338;12.524;2023-03-04T07:45:21;100435.09;;;3.48;nan
21863;BME280;11096;51.338;12.524;2023-03-04T07:47:47;100434.81;;;3.55;nan
21863;BME280;11096;51.338;12.524;2023-03-04T07:50:13;100433.84;;;3.59;nan
21863;BME280;11096;51.338;12.524;2023-03-04T07:52:40;100431.16;;;3.62;nan
21863;BME280;11096;51.338;12.524;2023-03-04T07:55:06;100433.91;;;3.56;nan
21863;BME280;11096;51.338;12.524;2023-03-04T07:57:32;100436.56;;;3.55;nan
21863;BME280;11096;51.338;12.524;2023-03-04T07:59:57;100430.72;;;3.75;nan
21863;BME280;11096;51.338;12.524;2023-03-04T08:02:23;100426.13;;;3.83;nan
21863;BME280;11096;51.338;12.524;2023-03-04T08:04:48;100435.34;;;3.65;nan
21863;BME280;11096;51.338;12.524;2023-03-04T08:07:13;100425.41;;;3.79;nan
21863;BME280;11096;51.338;12.524;2023-03-04T08:09:39;100431.25;;;3.83;nan
21863;BME280;11096;51.338;12.524;2023-03-04T08:12:04;100430.44;;;3.82;nan
21863;BME280;11096;51.338;12.524;2023-03-04T08:14:30;100426.22;;;3.80;nan
21863;BME280;11096;51.338;12.524;2023-03-04T08:16:55;100429.22;;;3.91;nan
21863;BME280;11096;51.338;12.524;2023-03-04T08:19:21;100427.34;;;3.96;nan
21863;BME280;11096;51.338;12.524;2023-03-04T08:21:46;100422.47;;;4.12;nan
21863;BME280;11096;51.338;12.524;2023-03-04T08:24:12;100422.97;;;4.22;nan
21863;BME280;11096;51.338;12.524;2023-03-04T08:26:41;100424.53;;;4.26;nan
21863;BME280;11096;51.338;12.524;2023-03-04T08:29:11;100415.72;;;4.32;nan
21863;BME280;11096;51.338;12.524;2023-03-04T08:31:36;100417.88;;;4.42;nan
21863;BME280;11096;51.338;12.524;2023-03-04T08:34:03;100416.88;;;4.46;nan
21863;BME280;11096;51.338;12.524;2023-03-04T08:36:29;100413.50;;;4.44;nan
21863;BME280;11096;51.338;12.524;2023-03-04T08:38:54;100421.53;;;4.37;nan
21863;BME280;11096;51.338;12.524;2023-03-04T08:41:20;100408.00;;;4.32;nan
21863;BME280;11096;51.338;12.524;2023-03-04T08:43:46;100408.50;;;4.41;nan
21863;BME280;11096;51.338;12.524;2023-03-04T08:46:12;100408.13;;;4.50;nan
21863;BME280;11096;51.338;12.524;2023-03-04T08:48:37;100408.72;;;4.57;nan
21863;BME280;11096;51.338;12.524;2023-03-04T08:51:08;100414.44;;;4.86;nan
21863;BME280;11096;51.338;12.524;2023-03-04T08:53:34;100416.75;;;4.92;nan
21863;BME280;11096;51.338;12.524;2023-03-04T08:55:59;100405.69;;;4.90;nan
21863;BME280;11096;51.338;12.524;2023-03-04T08:58:25;100394.97;;;4.99;nan
21863;BME280;11096;51.338;12.524;2023-03-04T09:00:50;100400.59;;;4.88;nan
21863;BME280;11096;51.338;12.524;2023-03-04T09:03:17;100398.78;;;5.11;nan
21863;BME280;11096;51.338;12.524;2023-03-04T09:05:47;100397.19;;;5.08;nan
21863;BME280;11096;51.338;12.524;2023-03-04T09:08:14;100393.25;;;5.20;nan
21863;BME280;11096;51.338;12.524;2023-03-04T09:10:39;100396.94;;;5.14;nan
21863;BME280;11096;51.338;12.524;2023-03-04T09:13:05;100397.47;;;5.02;nan
21863;BME280;11096;51.338;12.524;2023-03-04T09:15:31;100383.47;;;4.87;nan
21863;BME280;11096;51.338;12.524;2023-03-04T09:18:01;100397.00;;;4.92;nan
21863;BME280;11096;51.338;12.524;2023-03-04T09:20:27;100393.91;;;5.05;nan
21863;BME280;11096;51.338;12.524;2023-03-04T09:22:53;100387.78;;;5.07;nan
21863;BME280;11096;51.338;12.524;2023-03-04T09:25:18;100402.78;;;4.98;nan
21863;BME280;11096;51.338;12.524;2023-03-04T09:27:44;100402.78;;;4.98;nan
21863;BME280;11096;51.338;12.524;2023-03-04T09:30:10;100401.03;;;5.19;nan
21863;BME280;11096;51.338;12.524;2023-03-04T09:32:36;100397.00;;;5.13;nan
21863;BME280;11096;51.338;12.524;2023-03-04T09:35:01;100398.94;;;5.08;nan
21863;BME280;11096;51.338;12.524;2023-03-04T09:37:26;100399.34;;;4.97;nan
21863;BME280;11096;51.338;12.524;2023-03-04T09:39:52;100391.44;;;5.02;nan
21863;BME280;11096;51.338;12.524;2023-03-04T09:42:26;100384.59;;;5.42;nan
21863;BME280;11096;51.338;12.524;2023-03-04T09:44:53;100396.78;;;5.38;nan
21863;BME280;11096;51.338;12.524;2023-03-04T09:47:20;100390.66;;;5.41;nan
21863;BME280;11096;51.338;12.524;2023-03-04T09:49:54;100389.38;;;5.30;nan
21863;BME280;11096;51.338;12.524;2023-03-04T09:52:36;100387.97;;;5.23;nan
21863;BME280;11096;51.338;12.524;2023-03-04T10:00:34;100387.44;;;5.35;nan
21863;BME280;11096;51.338;12.524;2023-03-04T10:05:57;100376.53;;;5.49;nan
21863;BME280;11096;51.338;12.524;2023-03-04T10:08:38;100375.56;;;5.71;nan
21863;BME280;11096;51.338;12.524;2023-03-04T10:13:55;100371.44;;;5.48;nan
21863;BME280;11096;51.338;12.524;2023-03-04T10:16:25;100370.59;;;5.47;nan
21863;BME280;11096;51.338;12.524;2023-03-04T10:21:35;100370.69;;;5.65;nan
21863;BME280;11096;51.338;12.524;2023-03-04T10:24:16;100360.03;;;5.72;nan
21863;BME280;11096;51.338;12.524;2023-03-04T10:26:53;100359.41;;;5.86;nan
21863;BME280;11096;51.338;12.524;2023-03-04T10:29:22;100355.59;;;5.76;nan
21863;BME280;11096;51.338;12.524;2023-03-04T10:31:49;100348.25;;;5.67;nan
21863;BME280;11096;51.338;12.524;2023-03-04T10:34:15;100351.72;;;5.66;nan
21863;BME280;11096;51.338;12.524;2023-03-04T10:37:00;100362.81;;;5.87;nan
21863;BME280;11096;51.338;12.524;2023-03-04T10:39:29;100353.75;;;5.78;nan
21863;BME280;11096;51.338;12.524;2023-03-04T10:44:53;100345.28;;;5.76;nan
21863;BME280;11096;51.338;12.524;2023-03-04T10:47:28;100344.91;;;5.84;nan
21863;BME280;11096;51.338;12.524;2023-03-04T10:50:00;100343.06;;;5.86;nan
21863;BME280;11096;51.338;12.524;2023-03-04T10:52:38;100345.88;;;6.00;nan
21863;BME280;11096;51.338;12.524;2023-03-04T10:55:19;100339.66;;;5.85;nan
21863;BME280;11096;51.338;12.524;2023-03-04T10:57:49;100347.50;;;5.84;nan
21863;BME280;11096;51.338;12.524;2023-03-04T11:02:43;100339.41;;;5.91;nan
21863;BME280;11096;51.338;12.524;2023-03-04T11:05:20;100333.59;;;6.24;nan
21863;BME280;11096;51.338;12.524;2023-03-04T11:07:54;100332.09;;;6.55;nan
21863;BME280;11096;51.338;12.524;2023-03-04T11:10:38;100324.28;;;6.56;nan
21863;BME280;11096;51.338;12.524;2023-03-04T11:16:03;100322.38;;;6.95;nan
21863;BME280;11096;51.338;12.524;2023-03-04T11:18:49;100326.63;;;6.61;nan
21863;BME280;11096;51.338;12.524;2023-03-04T11:21:19;100320.47;;;6.63;nan
21863;BME280;11096;51.338;12.524;2023-03-04T11:26:39;100324.38;;;6.72;nan
21863;BME280;11096;51.338;12.524;2023-03-04T11:29:21;100329.66;;;6.52;nan
21863;BME280;11096;51.338;12.524;2023-03-04T11:32:13;100328.03;;;6.32;nan
21863;BME280;11096;51.338;12.524;2023-03-04T11:35:00;100337.97;;;6.22;nan
21863;BME280;11096;51.338;12.524;2023-03-04T11:37:38;100327.72;;;6.03;nan
21863;BME280;11096;51.338;12.524;2023-03-04T11:40:08;100329.97;;;5.90;nan
21863;BME280;11096;51.338;12.524;2023-03-04T11:45:24;100326.03;;;6.02;nan
21863;BME280;11096;51.338;12.524;2023-03-04T11:50:50;100310.72;;;6.16;nan
21863;BME280;11096;51.338;12.524;2023-03-04T11:53:28;100318.31;;;6.19;nan
21863;BME280;11096;51.338;12.524;2023-03-04T12:07:08;100285.69;;;6.36;nan
21863;BME280;11096;51.338;12.524;2023-03-04T12:09:44;100288.72;;;6.27;nan
21863;BME280;11096;51.338;12.524;2023-03-04T12:14:50;100287.13;;;6.41;nan
21863;BME280;11096;51.338;12.524;2023-03-04T12:20:23;100288.28;;;6.36;nan
21863;BME280;11096;51.338;12.524;2023-03-04T12:25:47;100276.13;;;6.55;nan
21863;BME280;11096;51.338;12.524;2023-03-04T12:44:38;100241.78;;;6.71;nan
21863;BME280;11096;51.338;12.524;2023-03-04T12:47:16;100251.66;;;6.80;nan
21863;BME280;11096;51.338;12.524;2023-03-04T12:54:57;100239.78;;;6.76;nan
21863;BME280;11096;51.338;12.524;2023-03-04T12:57:27;100245.16;;;6.88;nan
21863;BME280;11096;51.338;12.524;2023-03-04T13:07:55;100244.97;;;7.25;nan
21863;BME280;11096;51.338;12.524;2023-03-04T13:10:23;100237.81;;;7.30;nan
21863;BME280;11096;51.338;12.524;2023-03-04T13:12:54;100240.41;;;8.97;nan
21863;BME280;11096;51.338;12.524;2023-03-04T13:23:01;100236.47;;;7.70;nan
21863;BME280;11096;51.338;12.524;2023-03-04T13:28:36;100234.28;;;8.69;nan
21863;BME280;11096;51.338;12.524;2023-03-04T13:36:04;100210.63;;;11.15;nan
21863;BME280;11096;51.338;12.524;2023-03-04T13:38:35;100215.84;;;9.58;nan
21863;BME280;11096;51.338;12.524;2023-03-04T13:41:20;100227.03;;;9.17;nan
21863;BME280;11096;51.338;12.524;2023-03-04T13:43:53;100232.31;;;8.58;nan
21863;BME280;11096;51.338;12.524;2023-03-04T13:51:34;100215.72;;;7.56;nan
21863;BME280;11096;51.338;12.524;2023-03-04T13:54:15;100223.13;;;7.46;nan
21863;BME280;11096;51.338;12.524;2023-03-04T13:56:45;100219.63;;;7.47;nan
21863;BME280;11096;51.338;12.524;2023-03-04T14:06:54;100222.84;;;7.03;nan
21863;BME280;11096;51.338;12.524;2023-03-04T14:09:33;100233.03;;;7.06;nan
21863;BME280;11096;51.338;12.524;2023-03-04T14:12:03;100225.88;;;7.12;nan
21863;BME280;11096;51.338;12.524;2023-03-04T14:14:53;100220.84;;;7.08;nan
21863;BME280;11096;51.338;12.524;2023-03-04T14:17:30;100223.91;;;7.48;nan
21863;BME280;11096;51.338;12.524;2023-03-04T14:19:58;100224.28;;;7.57;nan
21863;BME280;11096;51.338;12.524;2023-03-04T14:22:28;100218.28;;;7.40;nan
21863;BME280;11096;51.338;12.524;2023-03-04T14:25:26;100215.88;;;7.37;nan
21863;BME280;11096;51.338;12.524;2023-03-04T14:28:05;100221.97;;;7.36;nan
21863;BME280;11096;51.338;12.524;2023-03-04T14:30:34;100223.13;;;7.30;nan
21863;BME280;11096;51.338;12.524;2023-03-04T14:33:00;100220.31;;;7.19;nan
21863;BME280;11096;51.338;12.524;2023-03-04T14:35:27;100211.94;;;6.98;nan
21863;BME280;11096;51.338;12.524;2023-03-04T14:38:04;100227.00;;;6.90;nan
21863;BME280;11096;51.338;12.524;2023-03-04T14:40:37;100212.66;;;6.84;nan
21863;BME280;11096;51.338;12.524;2023-03-04T14:43:14;100216.25;;;6.64;nan
21863;BME280;11096;51.338;12.524;2023-03-04T14:45:41;100214.63;;;6.46;nan
21863;BME280;11096;51.338;12.524;2023-03-04T14:48:08;100215.03;;;6.38;nan
21863;BME280;11096;51.338;12.524;2023-03-04T14:50:33;100207.28;;;6.38;nan
21863;BME280;11096;51.338;12.524;2023-03-04T14:53:10;100205.38;;;6.42;nan
21863;BME280;11096;51.338;12.524;2023-03-04T14:55:37;100207.72;;;6.29;nan
21863;BME280;11096;51.338;12.524;2023-03-04T15:00:34;100191.88;;;6.02;nan
21863;BME280;11096;51.338;12.524;2023-03-04T15:03:19;100202.19;;;6.02;nan
21863;BME280;11096;51.338;12.524;2023-03-04T15:05:45;100204.09;;;6.16;nan